createdAt,value
2022-12-13T00:03:54.670Z,3.65
2022-12-13T00:09:18.057Z,3.13
2022-12-13T00:14:39.781Z,3.50
2022-12-13T00:20:01.522Z,3.97
2022-12-13T00:25:23.259Z,3.65
2022-12-13T00:30:44.988Z,4.45
2022-12-13T00:36:07.930Z,4.05
2022-12-13T00:41:32.686Z,3.53
2022-12-13T00:46:54.791Z,3.83
2022-12-13T00:52:16.516Z,3.25
2022-12-13T00:57:38.218Z,3.60
2022-12-13T01:03:00.026Z,2.90
2022-12-13T01:08:21.849Z,3.50
2022-12-13T01:13:44.003Z,3.15
2022-12-13T01:19:05.697Z,3.25
2022-12-13T01:24:28.570Z,2.80
2022-12-13T01:29:50.303Z,3.63
2022-12-13T01:35:14.344Z,3.00
2022-12-13T01:40:44.107Z,2.90
2022-12-13T01:46:06.632Z,3.25
2022-12-13T01:51:42.156Z,2.88
2022-12-13T01:57:09.067Z,2.90
2022-12-13T02:02:31.117Z,3.00
2022-12-13T02:07:53.716Z,2.58
2022-12-13T02:13:15.825Z,2.80
2022-12-13T02:19:05.306Z,2.08
2022-12-13T02:24:29.794Z,2.20
2022-12-13T02:30:19.779Z,2.63
2022-12-13T02:35:55.375Z,2.67
2022-12-13T02:41:38.325Z,2.47
2022-12-13T02:47:12.541Z,2.40
2022-12-13T02:52:35.936Z,2.58
2022-12-13T02:57:57.599Z,2.92
2022-12-13T03:03:24.366Z,2.83
2022-12-13T03:08:49.110Z,2.30
2022-12-13T03:14:12.934Z,2.53
2022-12-13T03:19:35.012Z,2.40
2022-12-13T03:24:56.846Z,2.30
2022-12-13T03:30:18.628Z,2.50
2022-12-13T03:35:44.855Z,2.38
2022-12-13T03:41:14.028Z,2.95
2022-12-13T03:46:35.852Z,2.75
2022-12-13T03:51:57.607Z,2.38
2022-12-13T03:57:19.373Z,2.60
2022-12-13T04:02:41.105Z,2.78
2022-12-13T04:08:03.085Z,2.13
2022-12-13T04:13:34.046Z,2.78
2022-12-13T04:18:55.850Z,2.10
2022-12-13T04:24:17.594Z,2.67
2022-12-13T04:29:39.315Z,2.40
2022-12-13T04:35:12.721Z,2.60
2022-12-13T04:40:35.289Z,2.42
2022-12-13T04:45:57.037Z,2.53
2022-12-13T04:51:18.782Z,2.30
2022-12-13T04:56:40.488Z,2.22
2022-12-13T05:02:02.299Z,2.30
2022-12-13T05:07:24.116Z,2.40
2022-12-13T05:12:45.869Z,2.13
2022-12-13T05:18:09.880Z,2.58
2022-12-13T05:23:33.301Z,2.50
2022-12-13T05:28:58.344Z,2.20
2022-12-13T05:34:20.045Z,2.17
2022-12-13T05:39:41.765Z,2.10
2022-12-13T05:45:03.714Z,2.78
2022-12-13T05:50:25.910Z,1.90
2022-12-13T05:55:47.648Z,2.00
2022-12-13T06:01:14.298Z,2.15
2022-12-13T06:06:35.981Z,2.00
2022-12-13T06:12:01.063Z,2.00
2022-12-13T06:17:24.868Z,1.73
2022-12-13T06:22:46.601Z,1.70
2022-12-13T06:28:08.354Z,1.77
2022-12-13T06:33:30.174Z,1.70
2022-12-13T06:38:52.014Z,2.00
2022-12-13T06:44:13.751Z,1.90
2022-12-13T06:49:35.504Z,1.60
2022-12-13T06:54:59.952Z,1.38
2022-12-13T07:00:22.785Z,1.75
2022-12-13T07:05:45.358Z,1.60
2022-12-13T07:11:07.170Z,1.90
2022-12-13T07:16:29.135Z,1.90
2022-12-13T07:21:50.967Z,1.60
2022-12-13T07:27:12.699Z,2.17
2022-12-13T07:32:34.467Z,1.58
2022-12-13T07:37:56.204Z,1.73
2022-12-13T07:43:18.280Z,2.00
2022-12-13T07:48:40.377Z,2.55
2022-12-13T07:54:06.313Z,1.98
2022-12-13T07:59:29.175Z,1.90
2022-12-13T08:04:55.018Z,1.70
2022-12-13T08:10:17.034Z,1.90
2022-12-13T08:15:38.732Z,1.75
2022-12-13T08:21:02.108Z,1.50
2022-12-13T08:26:24.091Z,1.90
2022-12-13T08:31:46.224Z,1.70
2022-12-13T08:37:08.049Z,1.63
2022-12-13T08:42:29.788Z,1.75
2022-12-13T08:47:51.462Z,1.80
2022-12-13T08:53:28.858Z,1.50
2022-12-13T08:58:52.196Z,1.88
2022-12-13T09:04:13.863Z,1.85
2022-12-13T09:09:37.142Z,1.75
2022-12-13T09:15:00.924Z,1.85
2022-12-13T09:20:29.749Z,1.88
2022-12-13T09:26:05.199Z,2.92
2022-12-13T09:36:49.620Z,3.83
2022-12-13T09:42:21.198Z,3.35
2022-12-13T09:47:46.998Z,3.72
2022-12-13T09:53:21.454Z,3.42
2022-12-13T09:58:56.908Z,3.60
2022-12-13T10:04:19.210Z,3.10
2022-12-13T10:09:40.925Z,3.65
2022-12-13T10:15:03.747Z,3.92
2022-12-13T10:20:29.132Z,3.33
2022-12-13T10:26:03.297Z,3.10
2022-12-13T10:31:26.236Z,3.88
2022-12-13T10:36:48.446Z,3.17
2022-12-13T10:42:22.887Z,4.35
2022-12-13T10:47:46.209Z,4.07
2022-12-13T10:53:19.792Z,3.63
2022-12-13T10:58:47.143Z,3.90
2022-12-13T11:04:33.283Z,3.78
2022-12-13T11:09:55.278Z,3.85
2022-12-13T11:15:23.452Z,3.67
2022-12-13T11:21:11.976Z,3.72
2022-12-13T11:26:38.012Z,5.03
2022-12-13T11:32:05.555Z,4.88
2022-12-13T11:37:48.496Z,5.03
2022-12-13T11:43:40.107Z,5.40
2022-12-13T11:49:10.690Z,5.45
2022-12-13T11:54:46.760Z,5.45
2022-12-13T12:00:34.435Z,5.28
2022-12-13T12:06:06.046Z,5.30
2022-12-13T12:11:35.998Z,4.65
2022-12-13T12:16:59.258Z,5.28
2022-12-13T12:22:46.524Z,4.18
2022-12-13T12:28:29.696Z,4.60
2022-12-13T12:34:28.564Z,5.45
2022-12-13T12:40:09.782Z,7.07
2022-12-13T12:46:03.544Z,8.43
2022-12-13T12:52:00.465Z,7.28
2022-12-13T12:58:08.359Z,7.53
2022-12-13T13:08:59.350Z,5.47
2022-12-13T13:14:23.812Z,5.72
2022-12-13T13:19:47.927Z,5.28
2022-12-13T13:25:35.206Z,4.47
2022-12-13T13:31:09.355Z,4.78
2022-12-13T13:36:41.272Z,4.32
2022-12-13T13:42:14.753Z,5.25
2022-12-13T13:47:39.294Z,4.57
2022-12-13T13:53:21.231Z,4.82
2022-12-13T13:58:48.775Z,6.45
2022-12-13T14:04:48.713Z,6.35
2022-12-13T14:10:36.037Z,5.82
2022-12-13T14:16:37.200Z,6.72
2022-12-13T14:22:01.763Z,6.80
2022-12-13T14:27:45.638Z,6.05
2022-12-13T14:33:21.288Z,5.68
2022-12-13T14:38:43.193Z,5.53
2022-12-13T14:44:25.079Z,6.32
2022-12-13T14:49:51.351Z,5.30
2022-12-13T14:55:33.571Z,4.50
2022-12-13T15:00:58.278Z,4.75
2022-12-13T15:06:21.471Z,3.90
2022-12-13T15:11:44.873Z,3.90
2022-12-13T15:17:07.122Z,4.10
2022-12-13T15:22:30.103Z,3.35
2022-12-13T15:27:54.964Z,3.72
2022-12-13T15:33:19.098Z,3.00
2022-12-13T15:38:47.945Z,3.40
2022-12-13T15:44:20.932Z,2.75
2022-12-13T15:49:51.052Z,3.28
2022-12-13T15:55:12.659Z,3.30
2022-12-13T16:00:48.901Z,3.13
2022-12-13T16:06:18.231Z,3.00
2022-12-13T16:11:50.066Z,2.92
2022-12-13T16:17:29.596Z,2.80
2022-12-13T16:22:51.373Z,2.90
2022-12-13T16:28:17.824Z,3.10
2022-12-13T16:33:39.568Z,2.90
2022-12-13T16:39:01.303Z,3.33
2022-12-13T16:44:41.437Z,2.85
2022-12-13T16:50:10.002Z,3.05
2022-12-13T16:55:31.713Z,3.00
2022-12-13T17:00:58.227Z,3.70
2022-12-13T17:06:24.270Z,3.70
2022-12-13T17:11:46.163Z,2.85
2022-12-13T17:17:09.774Z,3.00
2022-12-13T17:22:35.219Z,3.47
2022-12-13T17:27:56.962Z,3.08
2022-12-13T17:33:18.667Z,3.75
2022-12-13T17:38:47.918Z,4.05
2022-12-13T17:44:10.996Z,3.28
2022-12-13T17:49:32.699Z,2.90
2022-12-13T17:54:54.432Z,2.90
2022-12-13T18:00:16.546Z,3.03
2022-12-13T18:05:38.218Z,2.90
2022-12-13T18:11:23.982Z,2.90
2022-12-13T18:16:41.648Z,3.03
2022-12-13T18:22:03.451Z,3.10
2022-12-13T18:27:25.302Z,2.60
2022-12-13T18:32:47.422Z,3.22
2022-12-13T18:38:09.549Z,2.78
2022-12-13T18:43:31.195Z,2.85
2022-12-13T18:48:52.888Z,2.35
2022-12-13T18:54:14.551Z,2.90
2022-12-13T18:59:36.218Z,2.35
2022-12-13T19:04:57.895Z,3.10
2022-12-13T19:10:19.643Z,2.78
2022-12-13T19:15:41.477Z,3.00
2022-12-13T19:21:07.594Z,2.50
2022-12-13T19:26:29.754Z,2.83
2022-12-13T19:31:51.572Z,3.97
2022-12-13T19:37:13.254Z,3.25
2022-12-13T19:42:34.978Z,3.80
2022-12-13T19:47:56.667Z,3.10
2022-12-13T19:53:18.353Z,3.55
2022-12-13T19:58:40.735Z,3.10
2022-12-13T20:04:02.448Z,3.03
2022-12-13T20:09:24.161Z,2.90
2022-12-13T20:14:46.149Z,3.45
2022-12-13T20:20:08.253Z,3.55
2022-12-13T20:25:30.038Z,3.03
2022-12-13T20:30:51.803Z,2.92
2022-12-13T20:36:27.217Z,3.78
2022-12-13T20:41:49.387Z,2.80
2022-12-13T20:47:11.233Z,3.00
2022-12-13T20:52:33.155Z,3.45
2022-12-13T20:57:55.062Z,2.53
2022-12-13T21:03:16.753Z,2.75
2022-12-13T21:09:00.184Z,2.40
2022-12-13T21:14:25.584Z,2.28
2022-12-13T21:19:48.940Z,2.20
2022-12-13T21:25:10.724Z,2.40
2022-12-13T21:30:32.465Z,2.17
2022-12-13T21:35:54.726Z,2.17
2022-12-13T21:41:16.607Z,2.60
2022-12-13T21:47:10.630Z,2.45
2022-12-13T21:52:20.056Z,3.20
2022-12-13T21:58:05.961Z,2.83
2022-12-13T22:03:29.619Z,3.10
2022-12-13T22:08:51.314Z,2.63
2022-12-13T22:14:13.318Z,2.80
2022-12-13T22:19:35.132Z,2.50
2022-12-13T22:24:56.844Z,2.10
2022-12-13T22:30:18.575Z,2.25
2022-12-13T22:35:40.327Z,1.88
2022-12-13T22:41:05.776Z,2.08
2022-12-13T22:46:27.925Z,2.00
2022-12-13T22:51:49.658Z,1.90
2022-12-13T22:57:11.413Z,1.88
2022-12-13T23:02:33.088Z,2.13
2022-12-13T23:07:54.888Z,2.00
2022-12-13T23:13:16.755Z,1.60
2022-12-13T23:18:38.566Z,2.00
2022-12-13T23:24:00.479Z,1.70
2022-12-13T23:29:22.188Z,1.50
2022-12-13T23:34:43.932Z,1.83
2022-12-13T23:40:06.187Z,1.60
2022-12-13T23:45:27.890Z,1.65
2022-12-13T23:50:49.680Z,1.80
2022-12-13T23:56:14.080Z,1.70
